Time;durP1;ratioP1;P1;durP2;ratioP2;P2;SDS_P1;SDS_P2;PMS_P1;PMS_P2;Temp;Humidity;BMP_temperature;BMP_pressure;BME280_temperature;BME280_humidity;BME280_pressure;Samples;Min_cycle;Max_cycle;Signal;HPM_P1;HPM_P2
2022/01/04 00:02:08;;;;;;;1.77;0.67;;;;;;;6.60;92.09;98959.13;4918180;29;20261;-77
2022/01/04 00:04:33;;;;;;;0.57;0.30;;;;;;;6.63;92.53;98947.16;4918191;29;20272;-77
2022/01/04 00:06:59;;;;;;;1.93;0.50;;;;;;;6.58;92.01;98947.81;4918098;29;20052;-78
2022/01/04 00:09:24;;;;;;;1.70;0.40;;;;;;;6.58;92.60;98942.47;4917959;29;20080;-77
2022/01/04 00:14:15;;;;;;;1.02;0.40;;;;;;;6.54;92.27;98932.41;4918206;29;20028;-77
2022/01/04 00:16:40;;;;;;;1.40;0.33;;;;;;;6.52;92.87;98923.75;4901658;29;20088;-81
2022/01/04 00:19:06;;;;;;;3.67;0.80;;;;;;;6.52;92.56;98924.59;4907319;29;20351;-77
2022/01/04 00:21:31;;;;;;;1.97;1.07;;;;;;;6.51;92.53;98925.63;4919150;29;20276;-78
2022/01/04 00:23:56;;;;;;;2.83;1.00;;;;;;;6.50;92.53;98918.63;4886336;29;20279;-78
2022/01/04 00:26:22;;;;;;;3.45;1.05;;;;;;;6.54;92.90;98913.66;4918114;29;20260;-77
2022/01/04 00:28:47;;;;;;;6.88;0.70;;;;;;;6.49;92.37;98908.13;4900763;29;20058;-77
2022/01/04 00:31:12;;;;;;;1.17;0.50;;;;;;;6.45;92.74;98905.06;4917866;29;20032;-79
2022/01/04 00:33:38;;;;;;;1.40;0.57;;;;;;;6.43;92.82;98899.13;4918017;29;20600;-79
2022/01/04 00:36:04;;;;;;;1.77;0.80;;;;;;;6.43;92.64;98891.09;4901632;29;20479;-79
2022/01/04 00:38:29;;;;;;;1.70;0.40;;;;;;;6.44;92.63;98891.94;4918190;29;20272;-79
2022/01/04 00:40:55;;;;;;;2.17;0.57;;;;;;;6.42;93.13;98878.75;4900814;29;20066;-79
2022/01/04 00:43:21;;;;;;;3.88;0.60;;;;;;;6.39;93.07;98876.50;4917675;29;20336;-79
2022/01/04 00:45:46;;;;;;;3.63;0.80;;;;;;;6.40;93.25;98872.81;4917985;29;20123;-75
2022/01/04 00:50:43;;;;;;;1.95;0.70;;;;;;;6.38;93.57;98866.84;4918023;29;20679;-78
2022/01/04 00:53:08;;;;;;;2.50;0.65;;;;;;;6.37;93.16;98867.06;4917641;29;20032;-78
2022/01/04 00:55:34;;;;;;;3.00;0.93;;;;;;;6.36;93.43;98862.75;4917452;29;20028;-77
2022/01/04 00:58:00;;;;;;;1.60;0.50;;;;;;;6.35;93.07;98853.06;4900391;29;20044;-77
2022/01/04 01:00:25;;;;;;;3.13;1.02;;;;;;;6.33;93.54;98845.25;4900033;29;20076;-78
2022/01/04 01:02:51;;;;;;;3.95;1.55;;;;;;;6.30;93.46;98845.69;4900423;29;20123;-78
2022/01/04 01:05:17;;;;;;;1.92;0.75;;;;;;;6.27;93.46;98830.88;4917452;29;20074;-77
2022/01/04 01:07:43;;;;;;;2.60;0.80;;;;;;;6.28;92.95;98831.72;4900075;29;20136;-77
2022/01/04 01:12:37;;;;;;;5.30;1.13;;;;;;;6.26;93.34;98823.09;4917121;29;20111;-78
2022/01/04 01:15:04;;;;;;;2.72;0.85;;;;;;;6.24;93.25;98820.66;4917014;29;20067;-78
2022/01/04 01:17:30;;;;;;;3.10;0.90;;;;;;;6.24;93.34;98807.28;4917158;29;20146;-77
2022/01/04 01:19:56;;;;;;;;;;;;;;;6.20;93.63;98805.25;4917636;29;20024;-80
2022/01/04 01:22:21;;;;;;;3.33;0.90;;;;;;;6.16;93.54;98799.50;4900197;29;19911;-78
2022/01/04 01:24:47;;;;;;;2.47;0.80;;;;;;;6.17;94.12;98798.47;4917177;29;20163;-77
2022/01/04 01:27:12;;;;;;;2.35;1.10;;;;;;;6.17;93.47;98795.78;4916966;29;20048;-77
2022/01/04 01:29:37;;;;;;;2.30;0.70;;;;;;;6.18;93.55;98793.94;4900384;29;20143;-78
2022/01/04 01:32:03;;;;;;;3.30;1.20;;;;;;;6.17;93.74;98779.75;4916551;29;20359;-77
2022/01/04 01:34:30;;;;;;;2.72;1.02;;;;;;;6.18;94.16;98788.59;4900421;29;20032;-78
2022/01/04 01:36:55;;;;;;;4.05;1.70;;;;;;;6.16;94.11;98786.13;4917222;29;20036;-77
2022/01/04 01:39:22;;;;;;;4.03;1.30;;;;;;;6.16;93.91;98786.13;4916915;29;20044;-78
2022/01/04 01:41:47;;;;;;;2.90;1.10;;;;;;;6.17;94.50;98771.72;4916993;29;20028;-77
2022/01/04 01:44:12;;;;;;;5.27;1.40;;;;;;;6.18;94.54;98767.19;4917301;29;20511;-79
2022/01/04 01:46:38;;;;;;;3.37;1.50;;;;;;;6.14;94.35;98766.81;4916905;29;20340;-81
2022/01/04 01:49:03;;;;;;;3.77;1.20;;;;;;;6.15;94.47;98764.94;4917249;29;20047;-78
2022/01/04 01:51:31;;;;;;;4.10;1.67;;;;;;;6.14;94.16;98764.13;4918020;29;20264;-79
2022/01/04 01:53:57;;;;;;;4.65;1.60;;;;;;;6.16;94.71;98766.59;4920798;29;20036;-79
2022/01/04 01:56:23;;;;;;;4.28;1.95;;;;;;;6.13;94.43;98767.84;4920625;29;20032;-77
2022/01/04 01:58:50;;;;;;;4.57;1.65;;;;;;;6.12;94.56;98770.72;4920636;29;20038;-78
2022/01/04 02:01:15;;;;;;;3.90;1.30;;;;;;;6.14;94.52;98771.31;4920684;29;20079;-78
2022/01/04 02:03:41;;;;;;;3.60;1.23;;;;;;;6.12;94.47;98768.03;4903503;29;20440;-79
2022/01/04 02:06:06;;;;;;;5.93;2.22;;;;;;;6.07;94.27;98765.22;4920434;29;20487;-78
2022/01/04 02:08:32;;;;;;;3.88;1.27;;;;;;;6.05;94.39;98756.59;4920824;29;20451;-78
2022/01/04 02:10:58;;;;;;;5.30;1.63;;;;;;;6.04;94.35;98746.94;4903223;29;20036;-80
2022/01/04 02:13:25;;;;;;;5.78;1.60;;;;;;;6.04;94.78;98749.59;4920350;29;20048;-78
2022/01/04 02:15:57;;;;;;;3.55;1.27;;;;;;;6.02;94.35;98733.78;4903322;29;20133;-79
2022/01/04 02:18:22;;;;;;;3.70;1.38;;;;;;;6.00;94.56;98737.69;4920271;29;20043;-78
2022/01/04 02:20:48;;;;;;;4.60;2.07;;;;;;;6.02;94.36;98732.97;4920280;29;20032;-79
2022/01/04 02:23:13;;;;;;;4.78;1.67;;;;;;;6.00;94.28;98735.03;4920407;29;20032;-79
2022/01/04 02:25:38;;;;;;;4.70;1.55;;;;;;;6.01;94.56;98731.31;4920094;29;20039;-78
2022/01/04 02:28:04;;;;;;;3.67;1.50;;;;;;;5.99;94.26;98725.38;4920149;29;20095;-78
2022/01/04 02:30:30;;;;;;;4.15;1.52;;;;;;;5.98;94.51;98723.72;4919914;29;20379;-77
2022/01/04 02:32:56;;;;;;;4.97;1.98;;;;;;;5.97;94.51;98728.25;4919598;29;20028;-78
2022/01/04 02:35:25;;;;;;;5.63;2.17;;;;;;;5.94;94.15;98723.34;4903103;29;20032;-78
2022/01/04 02:37:54;;;;;;;4.22;1.50;;;;;;;5.96;94.12;98725.78;4902759;29;20043;-78
2022/01/04 02:40:19;;;;;;;5.05;1.75;;;;;;;5.95;94.24;98724.97;4919741;29;20420;-79
2022/01/04 02:42:45;;;;;;;6.90;2.97;;;;;;;5.96;94.62;98715.09;4919294;29;20060;-79
2022/01/04 02:45:12;;;;;;;5.05;2.17;;;;;;;5.96;94.15;98709.75;4919351;29;20624;-77
2022/01/04 02:47:38;;;;;;;8.00;2.03;;;;;;;5.97;94.70;98711.41;4919217;29;20395;-78
2022/01/04 02:50:05;;;;;;;5.55;1.73;;;;;;;6.01;94.15;98697.38;4919234;29;20543;-80
2022/01/04 02:52:32;;;;;;;7.68;1.98;;;;;;;5.99;94.36;98698.63;4919233;29;20488;-78
2022/01/04 02:54:57;;;;;;;4.13;1.40;;;;;;;5.98;94.08;98703.16;4919712;29;20032;-78
2022/01/04 02:57:23;;;;;;;5.90;2.40;;;;;;;5.95;94.52;98700.91;4919179;29;20039;-78
2022/01/04 02:59:48;;;;;;;6.32;2.50;;;;;;;5.93;94.21;98701.13;4919369;29;20264;-80
2022/01/04 03:02:13;;;;;;;8.40;2.10;;;;;;;5.95;94.14;98697.44;4919220;29;20119;-78
2022/01/04 03:04:39;;;;;;;5.83;2.20;;;;;;;5.92;94.60;98688.81;4918476;29;20032;-78
2022/01/04 03:07:04;;;;;;;5.07;2.10;;;;;;;5.93;94.63;98695.78;4918743;29;20288;-79
2022/01/04 03:09:30;;;;;;;5.70;2.20;;;;;;;5.97;94.76;98700.69;4919001;29;20778;-78
2022/01/04 03:11:56;;;;;;;5.47;2.10;;;;;;;5.91;94.43;98695.19;4919027;29;20264;-76
2022/01/04 03:14:21;;;;;;;6.22;1.77;;;;;;;5.93;94.59;98698.47;4918833;29;20351;-77
2022/01/04 03:16:47;;;;;;;6.93;2.67;;;;;;;5.95;94.84;98692.09;4919043;29;20107;-78
2022/01/04 03:19:12;;;;;;;8.68;2.58;;;;;;;5.92;94.83;98683.44;4919224;29;20040;-79
2022/01/04 03:21:40;;;;;;;6.50;2.42;;;;;;;5.89;94.87;98677.75;4919085;29;20483;-77
2022/01/04 03:24:07;;;;;;;7.57;2.47;;;;;;;5.94;94.30;98675.22;4918604;29;20040;-77
2022/01/04 03:26:33;;;;;;;6.47;2.58;;;;;;;5.93;94.92;98673.59;4918818;29;20677;-78
2022/01/04 03:28:59;;;;;;;5.72;2.22;;;;;;;5.93;95.06;98662.88;4918805;29;20039;-78
2022/01/04 03:31:27;;;;;;;6.45;2.38;;;;;;;5.95;94.42;98660.00;4901733;29;20406;-77
2022/01/04 03:33:52;;;;;;;5.72;2.10;;;;;;;5.92;94.52;98646.03;4918375;29;20387;-79
2022/01/04 03:36:21;;;;;;;8.10;2.67;;;;;;;5.90;94.59;98636.63;4918995;29;20032;-79
2022/01/04 03:38:48;;;;;;;5.10;1.92;;;;;;;5.90;94.77;98636.63;4918608;29;20268;-78
2022/01/04 03:41:15;;;;;;;6.93;2.00;;;;;;;5.86;94.39;98617.50;4918201;29;20035;-79
2022/01/04 03:43:40;;;;;;;6.15;2.20;;;;;;;5.85;95.04;98617.72;4901554;29;20032;-79
2022/01/04 03:46:06;;;;;;;6.10;2.13;;;;;;;5.88;94.53;98619.94;4901515;29;20494;-79
2022/01/04 03:48:32;;;;;;;4.00;1.33;;;;;;;5.87;94.74;98607.63;4919102;29;20043;-79
2022/01/04 03:50:58;;;;;;;;;;;;;;;5.90;94.52;98609.88;4918786;29;20076;-77
2022/01/04 03:53:23;;;;;;;5.13;2.00;;;;;;;5.87;95.19;98595.06;4901471;29;19911;-78
2022/01/04 03:55:48;;;;;;;5.50;1.57;;;;;;;5.85;94.57;98591.78;4918237;29;20078;-77
2022/01/04 03:58:14;;;;;;;5.53;1.60;;;;;;;5.83;94.27;98582.34;4918142;29;20284;-78
2022/01/04 04:00:39;;;;;;;3.27;1.40;;;;;;;5.82;95.05;98578.88;4918617;29;20039;-78
2022/01/04 04:03:04;;;;;;;4.97;1.20;;;;;;;5.83;94.75;98575.16;4918024;29;20420;-77
2022/01/04 04:05:30;;;;;;;6.43;1.97;;;;;;;5.81;94.87;98566.53;4918412;29;20268;-77
2022/01/04 04:07:55;;;;;;;4.93;1.60;;;;;;;5.82;94.11;98565.50;4918262;29;20076;-78
2022/01/04 04:10:20;;;;;;;5.07;1.30;;;;;;;5.83;94.71;98560.97;4917901;29;20268;-79
2022/01/04 04:12:46;;;;;;;5.63;2.30;;;;;;;5.83;94.64;98556.44;4918059;29;20035;-79
2022/01/04 04:15:11;;;;;;;4.70;1.47;;;;;;;5.85;94.38;98546.34;4917559;29;20040;-78
2022/01/04 04:17:37;;;;;;;5.80;1.65;;;;;;;5.84;94.60;98536.72;4917605;29;20109;-78
2022/01/04 04:20:04;;;;;;;5.75;2.28;;;;;;;5.81;93.92;98534.47;4917818;29;20036;-77
2022/01/04 04:22:29;;;;;;;7.07;2.30;;;;;;;5.84;93.97;98523.34;4917598;29;20040;-77
2022/01/04 04:24:55;;;;;;;5.28;2.17;;;;;;;5.83;93.82;98520.88;4917930;29;20028;-77
2022/01/04 04:27:20;;;;;;;4.72;1.67;;;;;;;5.82;93.61;98511.22;4917740;29;20084;-78
2022/01/04 04:29:45;;;;;;;5.00;2.07;;;;;;;5.82;94.39;98512.06;4917884;29;20391;-78
2022/01/04 04:32:11;;;;;;;7.00;2.40;;;;;;;5.84;93.83;98515.31;4917869;29;20376;-78
2022/01/04 04:34:37;;;;;;;6.97;2.33;;;;;;;5.82;93.88;98511.22;4917522;29;20139;-78
2022/01/04 04:37:03;;;;;;;6.00;2.35;;;;;;;5.82;93.61;98508.56;4917858;29;20036;-79
2022/01/04 04:39:28;;;;;;;7.05;2.90;;;;;;;5.84;93.56;98499.28;4917590;29;20036;-79
2022/01/04 04:41:54;;;;;;;7.32;2.55;;;;;;;5.84;94.00;98498.47;4918498;29;20038;-80
2022/01/04 04:44:19;;;;;;;7.05;2.58;;;;;;;5.85;93.90;98500.09;4917494;29;20032;-78
2022/01/04 04:46:45;;;;;;;6.70;2.40;;;;;;;5.82;93.57;98490.66;4917627;29;20059;-80
2022/01/04 04:49:11;;;;;;;6.50;1.92;;;;;;;5.85;94.00;98484.06;4917346;29;20032;-81
2022/01/04 04:51:38;;;;;;;7.75;2.38;;;;;;;5.84;94.17;98482.44;4917619;29;20028;-79
2022/01/04 04:54:04;;;;;;;8.40;2.90;;;;;;;5.83;94.01;98478.13;4917383;29;20448;-79
2022/01/04 04:56:29;;;;;;;;;;;;;;;5.86;94.18;98470.50;4917833;29;20490;-79
2022/01/04 04:58:55;;;;;;;6.53;2.08;;;;;;;5.83;93.95;98478.94;4900656;29;19911;-79
2022/01/04 05:01:20;;;;;;;7.03;2.17;;;;;;;5.85;93.69;98479.53;4917435;29;20372;-79
2022/01/04 05:03:46;;;;;;;7.53;2.70;;;;;;;5.83;94.58;98476.28;4917922;29;20299;-79
2022/01/04 05:06:11;;;;;;;7.63;2.30;;;;;;;5.84;93.82;98477.91;4917370;29;20498;-77
2022/01/04 05:08:36;;;;;;;6.30;2.97;;;;;;;5.85;93.71;98479.53;4917019;29;20871;-80
2022/01/04 05:11:02;;;;;;;8.33;2.60;;;;;;;5.87;94.25;98482.00;4917382;29;20040;-79
2022/01/04 05:13:28;;;;;;;7.30;2.50;;;;;;;5.86;94.02;98473.16;4917459;29;20036;-79
2022/01/04 05:15:53;;;;;;;10.25;3.35;;;;;;;5.87;94.25;98472.13;4917672;29;20040;-77
2022/01/04 05:18:19;;;;;;;9.95;3.28;;;;;;;5.87;93.75;98477.47;4917748;29;20028;-80
2022/01/04 05:20:44;;;;;;;6.57;2.00;;;;;;;5.88;94.07;98479.13;4900308;29;20107;-78
2022/01/04 05:23:10;;;;;;;7.78;3.17;;;;;;;5.89;94.26;98477.28;4917731;29;20043;-79
2022/01/04 05:25:35;;;;;;;7.00;2.67;;;;;;;5.88;93.83;98484.47;4917341;29;20036;-79
2022/01/04 05:28:00;;;;;;;8.43;3.27;;;;;;;5.90;93.66;98490.44;4920214;29;20793;-79
2022/01/04 05:30:25;;;;;;;11.00;3.30;;;;;;;5.87;93.70;98480.13;4904397;29;20036;-80
2022/01/04 05:32:51;;;;;;;7.38;3.08;;;;;;;5.93;93.60;98471.25;4921203;29;20032;-79
2022/01/04 05:35:16;;;;;;;9.52;3.78;;;;;;;5.92;94.21;98484.81;4920831;29;20101;-80
2022/01/04 05:37:41;;;;;;;9.03;3.10;;;;;;;5.90;94.10;98471.72;4903979;29;20036;-79
2022/01/04 05:40:07;;;;;;;8.80;3.10;;;;;;;5.89;93.79;98474.59;4920728;29;20276;-79
2022/01/04 05:42:33;;;;;;;9.25;3.17;;;;;;;5.93;93.93;98473.09;4921143;29;20442;-78
2022/01/04 05:44:58;;;;;;;10.88;3.65;;;;;;;5.99;94.19;98466.06;4921257;29;20048;-78
2022/01/04 05:47:24;;;;;;;10.52;3.17;;;;;;;5.96;93.96;98464.63;4921816;29;20040;-77
2022/01/04 05:49:51;;;;;;;9.20;3.70;;;;;;;5.93;93.89;98470.44;4921740;29;20094;-78
2022/01/04 05:52:16;;;;;;;8.43;3.17;;;;;;;5.92;94.30;98463.44;4921706;29;20116;-78
2022/01/04 05:54:44;;;;;;;7.82;2.92;;;;;;;5.93;94.42;98457.06;4921312;29;20040;-79
2022/01/04 05:57:09;;;;;;;9.02;3.50;;;;;;;5.96;93.75;98456.63;4922254;29;20062;-78
2022/01/04 05:59:35;;;;;;;8.13;2.80;;;;;;;5.93;93.82;98457.88;4905483;29;20463;-78
2022/01/04 06:02:01;;;;;;;7.97;3.53;;;;;;;5.97;93.85;98452.09;4921408;29;20308;-78
2022/01/04 06:04:26;;;;;;;8.02;3.47;;;;;;;5.95;93.68;98441.63;4921246;29;20074;-78
2022/01/04 06:06:52;;;;;;;11.37;3.10;;;;;;;5.95;93.63;98440.81;4903067;29;20127;-79
2022/01/04 06:09:23;;;;;;;10.60;3.95;;;;;;;5.95;93.16;98435.47;4920720;29;20288;-78
2022/01/04 06:16:59;;;;;;;10.57;3.60;;;;;;;6.02;93.41;98414.81;4920144;29;20452;-80
2022/01/04 06:19:24;;;;;;;15.55;5.13;;;;;;;6.00;93.90;98424.91;4920327;29;20044;-79
2022/01/04 06:21:50;;;;;;;10.77;3.47;;;;;;;5.98;93.56;98421.66;4920154;29;20440;-78
2022/01/04 06:24:15;;;;;;;9.77;4.00;;;;;;;5.95;93.87;98419.41;4920210;29;20280;-78
2022/01/04 06:26:40;;;;;;;8.40;2.90;;;;;;;6.00;93.64;98419.56;4919869;29;20031;-78
2022/01/04 06:29:08;;;;;;;12.98;3.97;;;;;;;6.25;93.09;98409.59;4920264;29;20284;-77
2022/01/04 06:31:34;;;;;;;9.40;3.03;;;;;;;6.05;92.92;98411.69;4919679;29;20064;-78
2022/01/04 06:33:59;;;;;;;13.13;3.97;;;;;;;6.11;93.04;98413.47;4920794;29;20450;-78
2022/01/04 06:36:25;;;;;;;9.73;3.83;;;;;;;6.09;93.03;98411.00;4903696;29;20059;-77
2022/01/04 06:38:50;;;;;;;10.23;3.63;;;;;;;6.15;92.79;98399.41;4919351;29;20040;-79
2022/01/04 06:41:16;;;;;;;12.37;4.20;;;;;;;6.12;92.94;98410.56;4919214;29;20340;-77
2022/01/04 06:43:41;;;;;;;9.90;3.58;;;;;;;6.14;92.69;98403.13;4919265;29;20677;-78
2022/01/04 06:46:08;;;;;;;10.40;3.47;;;;;;;6.13;93.24;98398.00;4918922;29;20536;-77
2022/01/04 06:48:33;;;;;;;9.15;3.85;;;;;;;6.01;93.25;98394.47;4919004;29;20288;-76
2022/01/04 06:50:59;;;;;;;10.65;3.75;;;;;;;5.96;93.77;98388.97;4919151;29;20042;-78
2022/01/04 06:53:24;;;;;;;12.07;3.97;;;;;;;5.92;93.18;98386.75;4919677;29;20087;-77
2022/01/04 06:55:50;;;;;;;10.50;3.57;;;;;;;6.00;93.68;98380.28;4918924;29;20067;-77
2022/01/04 06:58:18;;;;;;;9.85;4.28;;;;;;;5.96;93.15;98372.94;4919108;29;20168;-78
2022/01/04 07:00:44;;;;;;;11.43;3.80;;;;;;;5.86;93.32;98371.59;4919938;29;20047;-77
2022/01/04 07:03:09;;;;;;;10.45;3.40;;;;;;;5.86;93.61;98371.59;4919340;29;20036;-78
2022/01/04 07:05:35;;;;;;;9.43;3.83;;;;;;;5.88;93.28;98369.56;4919406;29;20040;-78
2022/01/04 07:08:02;;;;;;;10.30;3.63;;;;;;;5.86;93.38;98370.78;4919026;29;20044;-78
2022/01/04 07:10:27;;;;;;;11.52;4.32;;;;;;;5.86;93.74;98373.44;4919002;29;20475;-77
2022/01/04 07:12:52;;;;;;;10.67;3.87;;;;;;;5.88;93.74;98369.56;4918629;29;20039;-78
2022/01/04 07:15:18;;;;;;;11.83;4.03;;;;;;;5.95;93.22;98382.00;4919145;29;20036;-78
2022/01/04 07:17:43;;;;;;;12.07;4.25;;;;;;;5.93;93.95;98383.03;4918827;29;20269;-77
2022/01/04 07:20:09;;;;;;;11.93;3.77;;;;;;;5.98;93.56;98381.56;4918307;29;20092;-78
2022/01/04 07:22:36;;;;;;;;;;;;;;;5.98;93.76;98379.69;4918941;29;20423;-76
2022/01/04 07:25:01;;;;;;;11.70;4.37;;;;;;;5.92;93.85;98376.06;4918035;29;20289;-77
2022/01/04 07:27:26;;;;;;;11.57;4.22;;;;;;;5.93;93.61;98374.19;4917947;29;20024;-77
2022/01/04 07:29:52;;;;;;;10.87;4.60;;;;;;;5.94;93.27;98357.13;4918315;29;20036;-78
2022/01/04 07:32:17;;;;;;;13.90;4.97;;;;;;;5.92;93.39;98352.00;4919063;29;20336;-79
2022/01/04 07:34:42;;;;;;;10.00;4.33;;;;;;;5.99;93.87;98346.56;4901941;29;20048;-77
2022/01/04 07:37:08;;;;;;;18.83;5.43;;;;;;;6.00;93.65;98342.88;4918834;29;20264;-79
2022/01/04 07:39:33;;;;;;;15.85;4.25;;;;;;;5.99;93.22;98349.25;4918934;29;20387;-78
2022/01/04 07:41:58;;;;;;;14.98;6.18;;;;;;;6.06;93.70;98354.53;4917893;29;20043;-78
2022/01/04 07:44:25;;;;;;;12.88;4.20;;;;;;;5.97;93.63;98342.50;4918045;29;20111;-77
2022/01/04 07:46:51;;;;;;;16.88;5.25;;;;;;;5.98;94.06;98350.28;4917565;29;20039;-78
2022/01/04 07:49:16;;;;;;;19.70;5.83;;;;;;;5.98;93.47;98354.81;4917162;29;20351;-78
2022/01/04 07:51:42;;;;;;;13.80;5.50;;;;;;;5.98;93.65;98352.16;4918084;29;20288;-77
2022/01/04 07:54:07;;;;;;;18.85;6.60;;;;;;;5.94;93.89;98354.44;4918556;29;20044;-78
2022/01/04 07:56:32;;;;;;;13.60;5.07;;;;;;;6.02;93.66;98353.34;4918377;29;20032;-80
2022/01/04 07:59:00;;;;;;;15.48;5.65;;;;;;;6.04;93.89;98348.56;4918279;29;20108;-78
2022/01/04 08:01:28;;;;;;;17.50;5.70;;;;;;;6.04;93.81;98343.22;4917919;29;20471;-78
2022/01/04 08:03:54;;;;;;;13.13;5.28;;;;;;;6.02;93.42;98351.47;4918153;29;20032;-78
2022/01/04 08:06:19;;;;;;;16.58;5.47;;;;;;;6.08;93.16;98352.44;4917974;29;20044;-78
2022/01/04 08:08:45;;;;;;;16.23;5.50;;;;;;;6.04;94.04;98343.22;4918158;29;20461;-78
2022/01/04 08:11:10;;;;;;;14.67;5.60;;;;;;;5.98;94.04;98333.44;4917974;29;20260;-78
2022/01/04 08:13:35;;;;;;;14.17;5.23;;;;;;;5.96;93.55;98344.34;4917050;29;20138;-79
2022/01/04 08:16:01;;;;;;;15.83;4.87;;;;;;;5.90;93.69;98345.28;4917397;29;20324;-77
2022/01/04 08:18:26;;;;;;;18.00;6.05;;;;;;;5.92;93.55;98341.31;4917818;29;20315;-78
2022/01/04 08:20:56;;;;;;;16.50;6.50;;;;;;;5.89;94.07;98346.31;4917652;29;20120;-78
2022/01/04 08:23:22;;;;;;;13.93;4.03;;;;;;;5.86;93.95;98352.88;4917195;29;20467;-78
2022/01/04 08:25:48;;;;;;;14.63;4.93;;;;;;;5.87;94.38;98359.06;4917677;29;20469;-78
2022/01/04 08:28:13;;;;;;;16.40;5.55;;;;;;;5.86;94.45;98349.41;4917431;29;20028;-77
2022/01/04 08:30:41;;;;;;;13.43;4.40;;;;;;;5.84;94.49;98341.59;4917730;29;20052;-79
2022/01/04 08:33:06;;;;;;;16.88;6.07;;;;;;;5.83;94.20;98339.97;4917930;29;20114;-77
2022/01/04 08:35:31;;;;;;;14.48;5.30;;;;;;;5.82;93.84;98337.53;4918208;29;20071;-78
2022/01/04 08:37:57;;;;;;;12.68;4.47;;;;;;;5.80;94.14;98342.28;4918304;29;20040;-79
2022/01/04 08:40:22;;;;;;;14.48;5.00;;;;;;;5.81;94.93;98331.34;4918198;29;20039;-79
2022/01/04 08:42:48;;;;;;;14.80;4.90;;;;;;;5.94;94.33;98338.41;4917852;29;20477;-77
2022/01/04 08:45:14;;;;;;;13.75;4.75;;;;;;;5.85;94.55;98332.53;4918677;29;20035;-81
2022/01/04 08:47:39;;;;;;;13.27;4.55;;;;;;;5.99;95.12;98337.75;4902367;29;20059;-81
2022/01/04 08:50:07;;;;;;;14.40;4.18;;;;;;;5.99;94.17;98335.88;4918866;29;20044;-79
2022/01/04 08:52:33;;;;;;;13.85;4.90;;;;;;;5.95;93.70;98339.22;4919033;29;20035;-80
2022/01/04 08:54:58;;;;;;;13.93;3.95;;;;;;;5.88;93.92;98325.94;4918002;29;20036;-78
2022/01/04 08:57:23;;;;;;;13.63;4.83;;;;;;;5.83;94.24;98326.59;4901224;29;20107;-80
2022/01/04 08:59:49;;;;;;;13.97;4.77;;;;;;;5.88;93.71;98329.47;4919350;29;20276;-79
2022/01/04 09:02:15;;;;;;;11.43;4.90;;;;;;;5.83;93.80;98342.63;4922252;29;20264;-80
2022/01/04 09:04:40;;;;;;;14.73;4.80;;;;;;;5.82;94.25;98327.66;4921603;29;20051;-77
2022/01/04 09:07:05;;;;;;;13.20;5.30;;;;;;;5.78;94.39;98328.31;4921464;29;20295;-78
2022/01/04 09:09:31;;;;;;;11.60;5.15;;;;;;;5.80;94.31;98332.41;4904318;29;20854;-77
2022/01/04 09:11:57;;;;;;;16.52;4.40;;;;;;;5.83;94.52;98333.81;4920759;29;20044;-77
2022/01/04 09:14:29;;;;;;;12.90;4.00;;;;;;;5.79;94.29;98341.44;4920997;29;20095;-78
2022/01/04 09:19:39;;;;;;;13.93;4.82;;;;;;;5.83;94.61;98347.16;4921144;29;20099;-77
2022/01/04 09:22:05;;;;;;;12.05;4.53;;;;;;;5.80;94.73;98356.44;4921410;29;20048;-78
2022/01/04 09:24:31;;;;;;;;;;;;;;;5.83;94.55;98357.84;4921724;29;20060;-78
2022/01/04 09:26:57;;;;;;;12.98;4.78;;;;;;;5.87;94.07;98367.88;4921583;29;19949;-77
2022/01/04 09:29:23;;;;;;;12.68;5.00;;;;;;;5.86;94.54;98366.25;4903875;29;20413;-78
2022/01/04 09:31:50;;;;;;;14.98;4.63;;;;;;;5.87;94.54;98359.88;4921615;29;20043;-80
2022/01/04 09:34:16;;;;;;;14.63;4.50;;;;;;;5.89;94.14;98359.69;4921397;29;20032;-78
2022/01/04 09:36:43;;;;;;;12.38;4.72;;;;;;;5.90;93.87;98334.59;4921569;29;20032;-79
2022/01/04 09:39:18;;;;;;;14.32;4.30;;;;;;;5.85;93.93;98329.88;4904360;29;20038;-77
2022/01/04 09:41:44;;;;;;;14.35;5.60;;;;;;;5.88;93.67;98344.66;4920973;29;20031;-78
2022/01/04 09:44:13;;;;;;;13.30;4.72;;;;;;;5.85;93.87;98337.88;4920833;29;20028;-77
2022/01/04 09:46:40;;;;;;;13.27;5.28;;;;;;;5.86;93.86;98322.66;4920483;29;20546;-78
2022/01/04 09:49:07;;;;;;;13.60;4.47;;;;;;;5.87;94.35;98340.34;4903869;29;20115;-78
2022/01/04 09:51:37;;;;;;;12.10;4.25;;;;;;;5.93;94.02;98337.59;4920861;29;20028;-77
2022/01/04 09:54:02;;;;;;;12.00;4.32;;;;;;;5.87;93.92;98343.00;4921000;29;20040;-78
2022/01/04 09:56:28;;;;;;;11.48;4.55;;;;;;;5.85;93.49;98342.41;4921310;29;20034;-76
2022/01/04 09:58:53;;;;;;;9.37;3.93;;;;;;;5.87;93.45;98343.00;4922165;29;20072;-77
2022/01/04 10:01:24;;;;;;;10.82;3.90;;;;;;;5.86;93.58;98326.16;4924556;29;20082;-79
2022/01/04 10:03:50;;;;;;;10.77;3.47;;;;;;;5.87;93.15;98333.13;4923351;29;20123;-78
2022/01/04 10:06:16;;;;;;;10.75;3.47;;;;;;;5.93;93.98;98342.94;4923808;29;20062;-78
2022/01/04 10:08:56;;;;;;;10.07;3.25;;;;;;;5.90;93.14;98338.06;4923647;29;20036;-78
2022/01/04 10:11:33;;;;;;;12.35;3.92;;;;;;;5.87;93.39;98322.44;4923938;29;20035;-77
2022/01/04 10:14:25;;;;;;;14.98;4.57;;;;;;;5.99;93.80;98330.53;4924619;29;20042;-79
2022/01/04 10:16:53;;;;;;;9.57;3.83;;;;;;;5.96;93.37;98335.50;4908437;29;20475;-80
2022/01/04 10:19:29;;;;;;;12.40;4.10;;;;;;;6.00;93.48;98334.03;4924615;29;20040;-79
2022/01/04 10:22:34;;;;;;;11.13;4.47;;;;;;;5.95;94.00;98337.38;4923236;29;20507;-81
2022/01/04 10:25:03;;;;;;;8.85;3.28;;;;;;;6.06;93.45;98339.28;4894959;29;20502;-80
2022/01/04 10:27:47;;;;;;;10.93;4.07;;;;;;;6.08;93.32;98341.75;4924107;29;20100;-78
2022/01/04 10:30:13;;;;;;;9.23;3.60;;;;;;;6.02;93.15;98354.16;4922626;29;20114;-78
2022/01/04 10:32:50;;;;;;;10.88;3.75;;;;;;;5.98;93.73;98342.28;4924802;29;20068;-81
2022/01/04 10:35:42;;;;;;;10.38;3.50;;;;;;;5.92;94.04;98343.97;4922213;29;20051;-80
2022/01/04 10:38:21;;;;;;;11.77;4.20;;;;;;;5.89;93.49;98338.28;4917297;29;20056;-79
2022/01/04 10:40:56;;;;;;;12.50;4.22;;;;;;;5.88;94.21;98342.81;4923915;29;20040;-80
2022/01/04 10:43:23;;;;;;;9.55;4.43;;;;;;;5.88;93.55;98337.47;4921482;29;20047;-78
2022/01/04 10:45:50;;;;;;;10.95;4.32;;;;;;;5.86;94.23;98338.72;4920232;29;20035;-78
2022/01/04 10:48:21;;;;;;;12.02;5.35;;;;;;;5.90;94.14;98327.38;4920464;29;20063;-79
2022/01/04 10:50:52;;;;;;;12.43;4.75;;;;;;;5.88;93.94;98326.78;4903185;29;20361;-78
2022/01/04 10:53:19;;;;;;;9.75;4.65;;;;;;;5.91;93.74;98320.97;4919984;29;20028;-79
2022/01/04 10:55:47;;;;;;;16.30;5.15;;;;;;;5.92;94.21;98330.63;4904613;29;20032;-84
2022/01/04 10:58:21;;;;;;;16.10;5.63;;;;;;;5.88;93.91;98307.22;4921431;29;20024;-80
2022/01/04 11:00:55;;;;;;;14.73;4.93;;;;;;;5.90;94.05;98303.31;4921645;29;20033;-80
2022/01/04 11:03:32;;;;;;;12.15;5.03;;;;;;;5.88;94.58;98300.06;4921595;29;20036;-80
2022/01/04 11:06:07;;;;;;;16.42;5.65;;;;;;;5.96;93.95;98300.75;4903861;29;20028;-80
2022/01/04 11:08:33;;;;;;;16.67;5.55;;;;;;;5.93;94.16;98305.53;4921981;29;20087;-81
2022/01/04 11:10:59;;;;;;;;;;;;;;;5.94;94.29;98311.69;4920962;29;20066;-80
2022/01/04 11:13:24;;;;;;;13.88;5.43;;;;;;;5.97;93.80;98310.41;4920718;29;19914;-79
2022/01/04 11:15:51;;;;;;;14.57;5.88;;;;;;;5.99;94.14;98309.16;4903572;29;20490;-80
2022/01/04 11:18:17;;;;;;;14.55;5.63;;;;;;;6.03;93.96;98309.53;4920343;29;20067;-82
2022/01/04 11:20:42;;;;;;;14.27;5.35;;;;;;;6.00;93.95;98315.31;4920702;29;20032;-80
2022/01/04 11:23:09;;;;;;;22.75;8.32;;;;;;;5.98;94.17;98312.88;4920380;29;20058;-80
2022/01/04 11:25:35;;;;;;;16.45;6.10;;;;;;;5.99;93.99;98321.69;4902668;29;20475;-82
2022/01/04 11:28:01;;;;;;;11.98;4.88;;;;;;;6.01;94.27;98317.75;4920335;29;20036;-80
2022/01/04 11:30:29;;;;;;;15.65;5.97;;;;;;;6.00;94.16;98331.34;4921508;29;20119;-79
2022/01/04 11:32:59;;;;;;;16.75;6.65;;;;;;;6.02;93.86;98331.94;4921866;29;20036;-81
2022/01/04 11:35:26;;;;;;;11.57;4.70;;;;;;;6.02;94.22;98327.41;4922151;29;20102;-82
2022/01/04 11:37:56;;;;;;;12.80;5.45;;;;;;;6.06;94.25;98325.13;4922406;29;20115;-81
2022/01/04 11:40:25;;;;;;;15.73;6.00;;;;;;;6.03;93.94;98318.34;4907473;29;20032;-81
2022/01/04 11:42:50;;;;;;;13.23;6.00;;;;;;;6.06;94.64;98312.56;4920949;29;20107;-80
2022/01/04 11:45:44;;;;;;;14.73;6.18;;;;;;;6.07;94.55;98294.66;4920706;29;20176;-79
2022/01/04 11:48:36;;;;;;;13.40;5.65;;;;;;;6.08;93.73;98293.63;4903984;29;20036;-82
2022/01/04 11:51:30;;;;;;;14.73;5.78;;;;;;;6.07;94.07;98287.47;4915474;29;20096;-81
2022/01/04 11:54:21;;;;;;;16.30;5.63;;;;;;;6.12;93.80;98289.44;4920314;29;20159;-80